createdAt,value
2022-09-22T00:14:43.982Z,97.58
2022-09-22T00:26:56.116Z,97.87
2022-09-22T00:52:23.205Z,98.03
2022-09-22T01:16:27.003Z,98.35
2022-09-22T01:20:36.848Z,98.21
2022-09-22T01:24:15.220Z,98.35
2022-09-22T01:32:56.034Z,98.39
2022-09-22T01:40:25.006Z,98.50
2022-09-22T01:44:10.166Z,98.47
2022-09-22T01:47:45.399Z,98.55
2022-09-22T01:52:27.609Z,98.46
2022-09-22T01:55:45.576Z,98.55
2022-09-22T01:59:30.089Z,98.59
2022-09-22T02:08:12.414Z,98.72
2022-09-22T02:10:59.071Z,98.93
2022-09-22T02:14:31.802Z,98.86
2022-09-22T02:17:41.060Z,99.03
2022-09-22T02:20:42.878Z,99.16
2022-09-22T02:23:49.915Z,99.11
2022-09-22T02:27:09.156Z,99.36
2022-09-22T02:30:16.015Z,99.55
2022-09-22T02:33:38.105Z,99.57
2022-09-22T02:37:01.952Z,99.64
2022-09-22T02:40:26.802Z,99.41
2022-09-22T02:43:42.660Z,99.44
2022-09-22T02:47:02.797Z,99.47
2022-09-22T02:50:10.926Z,99.49
2022-09-22T02:53:15.629Z,99.35
2022-09-22T02:56:17.495Z,99.53
2022-09-22T02:59:30.062Z,99.61
2022-09-22T03:02:31.968Z,99.57
2022-09-22T03:05:44.039Z,99.72
2022-09-22T03:08:48.033Z,99.49
2022-09-22T03:11:49.846Z,99.58
2022-09-22T03:14:51.617Z,99.39
2022-09-22T03:17:58.464Z,99.40
2022-09-22T03:21:00.227Z,99.48
2022-09-22T05:12:58.942Z,100.00
2022-09-22T05:16:00.704Z,99.94
2022-09-22T05:19:02.419Z,99.88
2022-09-22T05:22:04.098Z,99.99
2022-09-22T05:25:11.299Z,100.00
2022-09-22T05:28:13.551Z,100.00
2022-09-22T05:31:15.220Z,99.94
2022-09-22T05:34:17.059Z,100.00
2022-09-22T05:37:18.746Z,99.90
2022-09-22T05:40:25.064Z,99.83
2022-09-22T05:43:30.154Z,99.75
2022-09-22T05:46:31.811Z,99.79
2022-09-22T05:49:33.742Z,99.79
2022-09-22T05:52:35.458Z,99.51
2022-09-22T05:55:38.619Z,99.59
2022-09-22T05:58:40.447Z,99.55
2022-09-22T06:01:42.400Z,99.59
2022-09-22T06:04:46.066Z,99.45
2022-09-22T06:08:12.297Z,99.36
2022-09-22T06:11:13.966Z,99.37
2022-09-22T06:15:02.498Z,99.25
2022-09-22T06:17:38.354Z,99.33
2022-09-22T06:20:40.995Z,99.42
2022-09-22T06:23:43.146Z,99.42
2022-09-22T06:26:45.810Z,99.04
2022-09-22T06:29:50.439Z,98.99
2022-09-22T06:32:55.505Z,98.92
2022-09-22T06:36:03.410Z,98.79
2022-09-22T06:39:07.409Z,98.55
2022-09-22T06:42:30.367Z,98.49
2022-09-22T06:45:33.885Z,98.37
2022-09-22T06:48:35.781Z,98.47
2022-09-22T06:51:38.799Z,98.38
2022-09-22T06:54:42.789Z,98.49
2022-09-22T06:57:44.601Z,98.47
2022-09-22T07:00:47.366Z,98.62
2022-09-22T07:17:52.742Z,100.00
2022-09-22T07:21:01.769Z,100.00
2022-09-22T07:24:04.488Z,100.00
2022-09-22T07:27:07.048Z,100.00
2022-09-22T07:30:10.263Z,100.00
2022-09-22T07:33:11.935Z,100.00
2022-09-22T07:36:26.133Z,100.00
2022-09-22T07:39:30.693Z,100.00
2022-09-22T07:42:32.287Z,99.61
2022-09-22T07:45:33.946Z,99.04
2022-09-22T07:48:37.657Z,97.33
2022-09-22T07:51:44.833Z,96.50
2022-09-22T07:54:46.511Z,95.71
2022-09-22T07:57:55.776Z,94.60
2022-09-22T08:00:57.499Z,94.23
2022-09-22T08:03:59.280Z,93.84
2022-09-22T08:07:01.051Z,93.02
2022-09-22T08:10:02.840Z,91.98
2022-09-22T08:13:22.853Z,90.90
2022-09-22T08:16:28.275Z,89.15
2022-09-22T08:19:35.301Z,89.96
2022-09-22T08:22:36.948Z,89.45
2022-09-22T08:25:39.715Z,87.11
2022-09-22T08:28:41.378Z,87.31
2022-09-22T08:31:45.277Z,85.16
2022-09-22T08:34:47.035Z,85.38
2022-09-22T08:37:50.698Z,84.26
2022-09-22T08:40:59.881Z,82.48
2022-09-22T08:44:12.380Z,81.34
2022-09-22T08:47:39.669Z,82.42
2022-09-22T08:51:14.640Z,80.67
2022-09-22T08:54:17.059Z,81.48
2022-09-22T08:57:21.615Z,79.23
2022-09-22T09:00:25.371Z,78.60
2022-09-22T09:03:45.617Z,78.84
2022-09-22T09:07:13.986Z,77.21
2022-09-22T09:10:28.308Z,76.67
2022-09-22T09:13:48.850Z,77.06
2022-09-22T09:16:50.388Z,76.14
2022-09-22T09:20:15.384Z,77.80
2022-09-22T09:23:21.384Z,76.54
2022-09-22T09:26:23.614Z,76.36
2022-09-22T09:29:29.853Z,76.26
2022-09-22T09:32:48.771Z,76.96
2022-09-22T09:35:52.999Z,75.23
2022-09-22T09:38:56.833Z,74.87
2022-09-22T09:42:01.822Z,75.20
2022-09-22T09:45:04.815Z,74.59
2022-09-22T09:48:12.467Z,73.40
2022-09-22T09:51:14.284Z,69.64
2022-09-22T09:54:18.387Z,70.18
2022-09-22T09:57:21.400Z,68.87
2022-09-22T10:00:32.334Z,67.08
2022-09-22T10:03:36.306Z,64.96
2022-09-22T10:06:38.150Z,66.38
2022-09-22T10:09:40.940Z,65.70
2022-09-22T10:12:42.595Z,66.29
2022-09-22T10:16:17.557Z,63.39
2022-09-22T10:19:27.488Z,64.19
2022-09-22T10:22:29.081Z,64.33
2022-09-22T10:25:32.010Z,64.16
2022-09-22T10:28:36.324Z,62.09
2022-09-22T10:31:39.414Z,58.55
2022-09-22T10:34:51.408Z,63.34
2022-09-22T10:37:57.117Z,60.59
2022-09-22T10:41:08.927Z,60.30
2022-09-22T10:47:55.286Z,60.39
2022-09-22T10:51:12.543Z,58.46
2022-09-22T10:54:35.811Z,59.70
2022-09-22T10:57:52.671Z,62.43
2022-09-22T11:01:09.281Z,60.04
2022-09-22T11:04:33.381Z,59.04
2022-09-22T11:07:53.604Z,58.60
2022-09-22T11:11:33.559Z,59.21
2022-09-22T11:15:04.807Z,58.38
2022-09-22T11:18:12.783Z,57.48
2022-09-22T11:21:38.883Z,58.70
2022-09-22T11:24:44.537Z,59.63
2022-09-22T11:27:52.183Z,58.19
2022-09-22T11:30:57.466Z,57.55
2022-09-22T11:34:30.192Z,57.69
2022-09-22T11:37:58.778Z,57.18
2022-09-22T11:41:18.640Z,57.41
2022-09-22T11:44:32.108Z,58.20
2022-09-22T11:47:36.733Z,59.08
2022-09-22T11:50:48.712Z,59.27
2022-09-22T11:54:17.409Z,57.09
2022-09-22T11:57:23.735Z,56.77
2022-09-22T12:00:25.885Z,57.01
2022-09-22T12:03:34.930Z,57.81
2022-09-22T12:06:42.864Z,56.16
2022-09-22T12:09:56.767Z,56.29
2022-09-22T12:12:59.958Z,57.75
2022-09-22T12:16:07.176Z,58.95
2022-09-22T12:19:31.719Z,58.70
2022-09-22T12:22:57.683Z,60.31
2022-09-22T12:26:09.918Z,59.41
2022-09-22T12:29:11.398Z,58.84
2022-09-22T12:32:26.329Z,59.45
2022-09-22T12:35:31.401Z,58.75
2022-09-22T12:38:33.658Z,58.38
2022-09-22T12:41:57.870Z,59.54
2022-09-22T12:45:06.758Z,59.18
2022-09-22T12:48:17.484Z,59.30
2022-09-22T12:51:37.158Z,59.58
2022-09-22T12:54:39.026Z,60.17
2022-09-22T12:58:24.208Z,58.75
2022-09-22T13:01:39.324Z,59.23
2022-09-22T13:04:41.999Z,59.35
2022-09-22T13:07:44.721Z,60.18
2022-09-22T13:10:54.204Z,58.96
2022-09-22T13:13:55.776Z,58.76
2022-09-22T13:16:57.924Z,58.26
2022-09-22T13:19:59.697Z,57.32
2022-09-22T13:23:05.673Z,58.13
2022-09-22T13:26:13.336Z,55.85
2022-09-22T13:29:19.649Z,55.17
2022-09-22T13:32:26.826Z,56.00
2022-09-22T13:35:32.563Z,53.87
2022-09-22T13:38:40.964Z,54.01
2022-09-22T13:41:48.669Z,53.17
2022-09-22T13:45:06.550Z,52.31
2022-09-22T13:48:14.170Z,53.70
2022-09-22T13:51:16.990Z,52.77
2022-09-22T13:54:24.267Z,53.25
2022-09-22T13:57:31.147Z,53.70
2022-09-22T14:01:12.591Z,52.72
2022-09-22T14:04:48.398Z,53.02
2022-09-22T14:08:10.516Z,53.95
2022-09-22T14:11:28.463Z,53.39
2022-09-22T14:14:30.902Z,53.36
2022-09-22T14:17:32.563Z,53.28
2022-09-22T14:20:39.757Z,52.67
2022-09-22T14:23:49.180Z,53.22
2022-09-22T14:27:04.181Z,53.98
2022-09-22T14:30:06.981Z,54.76
2022-09-22T14:33:17.891Z,56.04
2022-09-22T14:36:24.736Z,56.54
2022-09-22T14:39:34.258Z,56.24
2022-09-22T14:42:37.142Z,54.49
2022-09-22T14:45:59.371Z,55.90
2022-09-22T14:49:39.460Z,56.88
2022-09-22T14:52:48.697Z,56.93
2022-09-22T14:56:00.896Z,56.36
2022-09-22T14:59:26.342Z,56.59
2022-09-22T15:02:33.963Z,56.77
2022-09-22T15:05:36.088Z,58.53
2022-09-22T15:08:48.968Z,59.27
2022-09-22T15:11:56.888Z,59.76
2022-09-22T15:14:59.641Z,59.81
2022-09-22T15:21:38.195Z,61.33
2022-09-22T15:24:40.419Z,62.18
2022-09-22T15:27:43.002Z,62.14
2022-09-22T15:30:47.472Z,62.36
2022-09-22T15:33:49.252Z,62.02
2022-09-22T15:36:53.148Z,59.84
2022-09-22T15:39:54.734Z,56.82
2022-09-22T15:43:12.326Z,57.46
2022-09-22T15:46:37.662Z,57.80
2022-09-22T15:49:40.111Z,58.20
2022-09-22T15:52:43.254Z,58.91
2022-09-22T15:55:45.037Z,59.76
2022-09-22T15:58:49.256Z,60.48
2022-09-22T16:01:51.950Z,60.58
2022-09-22T16:04:55.510Z,60.65
2022-09-22T16:07:57.191Z,61.16
2022-09-22T16:11:05.537Z,61.95
2022-09-22T16:14:07.292Z,62.79
2022-09-22T16:17:08.941Z,63.30
2022-09-22T16:20:14.040Z,64.01
2022-09-22T16:23:15.658Z,64.37
2022-09-22T16:26:17.211Z,64.73
2022-09-22T16:29:18.947Z,64.98
2022-09-22T16:32:20.520Z,65.88
2022-09-22T16:35:24.319Z,67.15
2022-09-22T16:38:25.999Z,68.12
2022-09-22T16:41:29.837Z,68.42
2022-09-22T16:44:31.533Z,68.80
2022-09-22T16:47:33.055Z,69.48
2022-09-22T16:50:36.988Z,69.98
2022-09-22T16:53:39.445Z,70.48
2022-09-22T16:56:49.474Z,70.84
2022-09-22T16:59:51.042Z,71.53
2022-09-22T17:02:52.665Z,72.21
2022-09-22T17:06:08.084Z,73.15
2022-09-22T17:09:11.249Z,74.13
2022-09-22T17:12:12.798Z,74.55
2022-09-22T17:15:16.262Z,74.92
2022-09-22T17:18:17.966Z,75.26
2022-09-22T17:21:24.091Z,75.90
2022-09-22T17:24:27.031Z,76.67
2022-09-22T17:27:29.264Z,77.12
2022-09-22T17:30:30.880Z,77.13
2022-09-22T17:33:32.436Z,77.53
2022-09-22T17:36:33.995Z,77.72
2022-09-22T17:39:35.929Z,78.69
2022-09-22T17:42:38.166Z,78.43
2022-09-22T17:45:39.743Z,79.02
2022-09-22T17:48:59.952Z,77.98
2022-09-22T17:52:20.228Z,77.74
2022-09-22T17:55:22.814Z,77.97
2022-09-22T17:58:25.128Z,78.45
